Time;durP1;ratioP1;P1;durP2;ratioP2;P2;SDS_P1;SDS_P2;PMS_P1;PMS_P2;Temp;Humidity;BMP_temperature;BMP_pressure;BME280_temperature;BME280_humidity;BME280_pressure;Samples;Min_cycle;Max_cycle;Signal;HPM_P1;HPM_P2
2023/01/03 00:01:18;;;;;;;;;112.50;102.50;;;;;16.46;49.58;100301.72;5106469;28;11556;-79
2023/01/03 00:03:47;;;;;;;;;124.75;108.50;;;;;16.40;49.92;100303.56;5072365;28;11579;-78
2023/01/03 00:06:17;;;;;;;;;120.25;108.75;;;;;16.40;49.95;100309.69;5089450;28;11509;-79
2023/01/03 00:08:48;;;;;;;;;118.50;106.25;;;;;16.41;49.92;100303.56;5089518;28;11724;-80
2023/01/03 00:12:22;;;;;;;;;117.00;106.00;;;;;16.34;50.37;100293.97;5089424;28;11690;-78
2023/01/03 00:14:10;;;;;;;;;129.25;113.75;;;;;15.95;51.49;100298.78;5106231;28;11529;-81
2023/01/03 00:16:39;;;;;;;;;119.00;106.75;;;;;15.96;51.53;100309.31;5089200;28;11529;-77
2023/01/03 00:19:09;;;;;;;;;117.75;111.75;;;;;16.08;50.81;100297.78;5072439;28;11533;-78
2023/01/03 00:21:39;;;;;;;;;122.75;113.25;;;;;16.02;51.68;100304.88;5055809;28;11600;-79
2023/01/03 00:24:10;;;;;;;;;120.75;109.75;;;;;15.92;51.83;100309.38;4987542;28;11769;-77
2023/01/03 00:26:40;;;;;;;;;118.00;107.25;;;;;16.15;51.34;100306.47;5088281;28;11611;-78
2023/01/03 00:29:10;;;;;;;;;97.00;95.00;;;;;16.16;51.50;100305.56;5097561;28;11648;-77
2023/01/03 00:31:40;;;;;;;;;122.25;113.25;;;;;16.26;50.92;100303.75;5090216;28;11616;-79
2023/01/03 00:34:09;;;;;;;;;121.75;111.50;;;;;16.38;50.42;100308.84;5092536;28;11603;-78
2023/01/03 00:36:39;;;;;;;;;114.25;107.25;;;;;16.46;50.28;100308.75;5095950;28;11672;-78
2023/01/03 00:39:10;;;;;;;;;120.25;114.25;;;;;16.55;49.99;100308.63;5109650;28;11607;-78
2023/01/03 00:41:40;;;;;;;;;117.75;107.75;;;;;16.60;49.60;100311.19;5092483;28;11628;-77
2023/01/03 00:44:10;;;;;;;;;123.50;116.75;;;;;16.65;49.64;100318.16;5111490;28;11609;-78
2023/01/03 00:46:39;;;;;;;;;118.75;108.75;;;;;16.68;49.12;100310.22;5113022;28;11615;-77
2023/01/03 00:49:08;;;;;;;;;128.25;109.75;;;;;16.69;49.41;100314.59;5098561;28;11836;-77
2023/01/03 00:51:38;;;;;;;;;122.50;111.00;;;;;16.70;49.38;100318.97;5135570;27;11635;-78
2023/01/03 00:54:10;;;;;;;;;123.50;114.25;;;;;16.73;49.48;100315.44;5125007;27;11588;-78
2023/01/03 00:56:42;;;;;;;;;124.50;116.75;;;;;16.69;48.66;100319.88;5142457;27;11685;-80
2023/01/03 00:59:12;;;;;;;;;122.50;113.75;;;;;16.71;48.56;100328.63;5080077;27;11570;-80
2023/01/03 01:01:43;;;;;;;;;123.75;117.50;;;;;16.72;48.16;100318.94;5094741;27;12345;-78
2023/01/03 01:04:17;;;;;;;;;126.50;116.00;;;;;16.69;48.15;100329.50;5110719;27;11603;-79
2023/01/03 01:06:48;;;;;;;;;123.00;115.00;;;;;16.63;48.02;100335.72;5105492;28;11558;-77
2023/01/03 01:09:24;;;;;;;;;138.75;125.25;;;;;16.66;47.44;100332.22;5088832;28;11537;-77
2023/01/03 01:11:53;;;;;;;;;141.25;127.50;;;;;16.57;47.64;100336.69;5105901;28;11650;-78
2023/01/03 01:14:25;;;;;;;;;130.50;116.25;;;;;16.53;47.22;100339.38;5108806;28;11514;-77
2023/01/03 01:16:59;;;;;;;;;125.75;114.50;;;;;16.44;48.09;100339.50;5093025;28;11664;-77
2023/01/03 01:19:30;;;;;;;;;129.50;118.25;;;;;16.33;48.16;100340.50;5069181;28;11554;-78
2023/01/03 01:21:59;;;;;;;;;118.25;114.25;;;;;16.26;47.97;100336.19;5049640;28;11647;-79
2023/01/03 01:24:30;;;;;;;;;120.00;109.00;;;;;16.24;48.02;100337.97;5016586;28;11682;-77
2023/01/03 01:26:59;;;;;;;;;111.50;104.50;;;;;16.17;47.71;100339.78;5016738;28;11623;-78
2023/01/03 01:29:29;;;;;;;;;111.25;100.50;;;;;16.16;48.16;100345.06;5016617;28;12284;-78
2023/01/03 01:31:57;;;;;;;;;126.00;112.75;;;;;16.09;48.20;100344.25;5016243;28;11593;-77
2023/01/03 01:34:26;;;;;;;;;120.50;112.25;;;;;16.04;48.15;100340.78;5016380;28;11591;-79
2023/01/03 01:36:55;;;;;;;;;127.75;114.25;;;;;16.00;48.62;100351.38;5034465;28;11578;-79
2023/01/03 01:39:26;;;;;;;;;120.25;112.50;;;;;15.96;48.95;100348.78;5036581;28;11553;-78
2023/01/03 01:44:53;;;;;;;;;119.75;111.50;;;;;15.96;49.14;100348.78;5052748;28;11624;-78
2023/01/03 01:47:34;;;;;;;;;134.75;119.75;;;;;16.00;49.26;100338.22;5052113;28;11677;-77
2023/01/03 01:50:13;;;;;;;;;124.50;112.75;;;;;15.92;49.77;100340.94;5067114;27;11524;-78
2023/01/03 01:52:48;;;;;;;;;118.00;109.00;;;;;15.89;49.80;100338.31;5115938;27;11597;-78
2023/01/03 01:55:23;;;;;;;;;133.75;117.00;;;;;15.88;50.19;100340.09;5131215;27;11593;-78
2023/01/03 01:57:54;;;;;;;;;131.75;118.00;;;;;15.83;49.90;100339.25;5131135;27;11580;-76
2023/01/03 02:00:23;;;;;;;;;140.75;126.25;;;;;15.73;50.29;100338.47;5114324;27;11595;-79
2023/01/03 02:02:53;;;;;;;;;146.00;130.50;;;;;15.72;50.11;100338.44;5113929;27;12424;-78
2023/01/03 02:05:25;;;;;;;;;135.00;123.50;;;;;15.66;50.23;100333.25;5131211;27;11616;-77
2023/01/03 02:07:55;;;;;;;;;135.00;122.75;;;;;15.66;49.97;100339.38;5131039;27;11577;-76
2023/01/03 02:10:39;;;;;;;;;129.25;119.25;;;;;15.68;49.89;100342.00;5132160;27;11603;-78
2023/01/03 02:13:18;;;;;;;;;134.50;121.50;;;;;15.65;50.50;100342.91;5111349;27;12329;-78
2023/01/03 02:16:00;;;;;;;;;123.25;120.00;;;;;15.65;50.11;100342.00;5111503;28;11590;-78
2023/01/03 02:18:42;;;;;;;;;138.75;125.25;;;;;15.18;51.67;100358.13;5091167;28;11548;-78
2023/01/03 02:21:50;;;;;;;;;136.75;124.50;;;;;15.40;50.28;100369.34;5108406;28;12351;-77
2023/01/03 02:25:17;;;;;;;;;141.50;123.25;;;;;13.60;56.52;100388.25;5091684;28;11511;-77
2023/01/03 02:28:07;;;;;;;;;124.25;113.50;;;;;13.13;58.32;100373.31;5048354;28;12369;-78
2023/01/03 02:30:41;;;;;;;;;120.50;111.25;;;;;12.78;59.87;100373.19;5031662;28;11625;-78
2023/01/03 02:33:20;;;;;;;;;130.00;114.75;;;;;13.47;57.26;100372.53;5047776;28;11813;-78
2023/01/03 02:35:58;;;;;;;;;121.00;106.25;;;;;13.83;56.10;100369.03;5031313;28;12450;-78
2023/01/03 02:38:37;;;;;;;;;126.00;111.50;;;;;14.03;55.26;100364.66;5047723;28;11629;-78
2023/01/03 02:41:16;;;;;;;;;127.00;118.25;;;;;14.22;54.76;100362.88;5031686;28;11627;-78
2023/01/03 02:43:53;;;;;;;;;125.00;114.75;;;;;14.40;54.04;100367.22;5031097;28;11725;-79
2023/01/03 02:46:27;;;;;;;;;121.50;113.00;;;;;14.51;53.45;100367.16;5031429;28;11624;-77
2023/01/03 02:49:02;;;;;;;;;119.25;107.00;;;;;14.60;52.95;100363.66;5034563;28;11775;-78
2023/01/03 02:51:36;;;;;;;;;129.75;114.75;;;;;14.69;52.83;100355.75;5034508;28;11576;-77
2023/01/03 02:54:10;;;;;;;;;128.75;119.75;;;;;14.70;52.82;100367.13;5068298;28;11655;-78
2023/01/03 02:56:44;;;;;;;;;129.00;116.50;;;;;14.70;53.16;100368.00;5035629;28;11653;-76
2023/01/03 02:59:17;;;;;;;;;133.25;121.50;;;;;14.67;53.06;100372.38;5034627;28;11644;-78
2023/01/03 03:01:51;;;;;;;;;126.50;117.50;;;;;14.80;52.78;100377.59;5067973;28;12415;-78
2023/01/03 03:04:21;;;;;;;;;140.25;127.25;;;;;14.69;53.19;100376.78;5091216;28;11601;-77
2023/01/03 03:06:58;;;;;;;;;135.25;128.00;;;;;14.77;52.92;100374.97;5091805;28;11596;-78
2023/01/03 03:09:27;;;;;;;;;141.25;127.25;;;;;14.73;53.27;100381.13;5109279;28;11835;-76
2023/01/03 03:14:51;;;;;;;;;136.50;123.75;;;;;14.73;53.13;100380.25;5109857;28;11605;-77
2023/01/03 03:17:24;;;;;;;;;118.75;104.00;;;;;14.67;53.34;100375.00;5075236;28;11721;-80
2023/01/03 03:25:39;;;;;;;;;135.50;126.75;;;;;14.52;53.90;100366.28;5027609;28;11653;-78
2023/01/03 03:31:03;;;;;;;;;142.25;123.50;;;;;14.43;53.93;100366.31;4991379;28;11603;-76
2023/01/03 03:33:38;;;;;;;;;144.50;130.25;;;;;14.44;54.09;100370.69;4990940;28;11823;-79
2023/01/03 03:36:13;;;;;;;;;142.25;129.25;;;;;14.41;54.29;100371.56;5006706;28;11626;-78
2023/01/03 03:38:44;;;;;;;;;133.50;122.75;;;;;14.17;55.77;100385.59;5006487;28;11614;-79
2023/01/03 03:47:16;;;;;;;;;140.75;124.50;;;;;14.26;55.44;100395.22;4990758;28;11607;-77
2023/01/03 03:49:51;;;;;;;;;140.25;129.25;;;;;14.22;55.38;100391.72;4990374;28;11745;-78
2023/01/03 03:52:25;;;;;;;;;141.25;133.75;;;;;14.19;55.57;100404.84;4990264;28;11640;-77
2023/01/03 03:54:59;;;;;;;;;134.75;123.00;;;;;14.11;55.90;100405.75;5006830;28;11623;-79
2023/01/03 03:57:33;;;;;;;;;125.50;119.50;;;;;14.18;55.46;100412.75;5006641;28;11646;-79
2023/01/03 04:00:08;;;;;;;;;132.75;119.25;;;;;14.19;55.38;100415.34;5022854;28;11633;-77
2023/01/03 04:02:41;;;;;;;;;127.75;123.00;;;;;14.14;55.56;100414.50;5089207;28;12313;-79
2023/01/03 04:05:14;;;;;;;;;135.00;128.50;;;;;14.20;55.38;100411.84;5087466;28;12410;-79
2023/01/03 04:07:43;;;;;;;;;133.75;122.00;;;;;14.15;55.52;100415.34;5053773;28;11665;-79
2023/01/03 04:10:13;;;;;;;;;131.50;120.75;;;;;14.20;55.31;100416.22;5070346;28;11608;-78
2023/01/03 04:12:42;;;;;;;;;140.25;125.50;;;;;14.16;55.66;100414.50;5070156;28;11690;-76
2023/01/03 04:15:11;;;;;;;;;130.25;114.50;;;;;14.17;55.62;100422.34;5071832;28;11606;-78
2023/01/03 04:17:40;;;;;;;;;139.50;127.50;;;;;14.14;55.84;100417.13;5090410;28;12384;-78
2023/01/03 04:20:11;;;;;;;;;135.75;127.00;;;;;14.15;55.62;100426.72;5125412;27;11619;-77
2023/01/03 04:22:40;;;;;;;;;133.00;117.25;;;;;14.14;56.01;100432.84;5108324;28;11612;-79
2023/01/03 04:25:10;;;;;;;;;145.75;128.00;;;;;14.14;56.25;100421.47;5108459;28;11640;-77
2023/01/03 04:27:39;;;;;;;;;134.25;121.75;;;;;14.15;56.03;100423.22;5108337;28;11622;-77
2023/01/03 04:30:10;;;;;;;;;130.75;123.75;;;;;14.12;56.34;100431.97;5126782;27;11683;-78
2023/01/03 04:32:39;;;;;;;;;130.75;117.25;;;;;14.16;56.39;100440.72;5077523;27;11605;-77
2023/01/03 04:35:09;;;;;;;;;128.75;112.50;;;;;14.16;56.40;100432.84;5127995;27;11577;-77
2023/01/03 04:37:39;;;;;;;;;136.25;121.75;;;;;14.21;56.32;100434.59;5093479;27;11619;-78
2023/01/03 04:40:09;;;;;;;;;122.75;117.00;;;;;14.18;56.45;100442.47;5127674;27;12385;-79
2023/01/03 04:45:25;;;;;;;;;136.75;123.75;;;;;14.18;56.46;100450.31;5130184;27;11595;-79
2023/01/03 04:47:54;;;;;;;;;140.00;122.50;;;;;14.24;55.75;100446.81;5090205;28;11634;-78
2023/01/03 04:50:23;;;;;;;;;130.75;114.25;;;;;14.19;56.32;100445.94;5090955;28;12231;-79
2023/01/03 04:52:53;;;;;;;;;121.50;109.50;;;;;14.20;56.22;100440.69;5109121;28;11595;-78
2023/01/03 04:55:22;;;;;;;;;121.50;111.25;;;;;14.23;56.01;100445.06;5110313;28;11665;-78
2023/01/03 04:57:51;;;;;;;;;126.50;112.50;;;;;14.20;56.59;100447.72;5111666;28;11606;-77
2023/01/03 05:00:20;;;;;;;;;146.25;132.25;;;;;14.23;56.20;100445.06;5109103;28;11543;-78
2023/01/03 05:02:49;;;;;;;;;162.25;143.00;;;;;14.15;56.62;100446.84;5093696;28;11605;-78
2023/01/03 05:05:17;;;;;;;;;129.75;119.00;;;;;14.15;56.97;100444.22;5094233;28;11621;-79
2023/01/03 05:07:46;;;;;;;;;126.50;118.00;;;;;14.13;56.66;100438.97;5109412;28;11597;-78
2023/01/03 05:10:18;;;;;;;;;128.25;111.00;;;;;14.14;57.05;100445.06;5107745;28;11736;-78
2023/01/03 05:12:58;;;;;;;;;121.50;105.50;;;;;14.16;56.91;100440.72;5125585;28;11564;-77
2023/01/03 05:15:28;;;;;;;;;121.00;115.75;;;;;14.12;57.04;100447.72;5110301;28;11516;-77
2023/01/03 05:17:58;;;;;;;;;118.50;110.25;;;;;14.04;57.60;100452.06;5092635;28;11649;-78
2023/01/03 05:26:05;;;;;;;;;116.00;107.25;;;;;14.06;57.16;100449.44;5073315;28;11592;-78
2023/01/03 05:28:35;;;;;;;;;110.25;97.50;;;;;14.05;57.32;100451.22;5114951;27;11548;-79
2023/01/03 05:31:03;;;;;;;;;116.25;104.75;;;;;14.05;57.11;100448.59;5129738;27;11649;-78
2023/01/03 05:33:32;;;;;;;;;123.50;112.25;;;;;14.07;56.86;100451.22;5093751;27;11596;-77
2023/01/03 05:36:01;;;;;;;;;142.50;123.25;;;;;13.98;57.15;100452.06;5093885;27;12374;-79
2023/01/03 05:38:30;;;;;;;;;119.75;109.00;;;;;13.99;57.21;100453.84;5128888;27;12360;-78
2023/01/03 05:40:59;;;;;;;;;109.00;103.25;;;;;14.02;56.81;100459.06;5110417;27;11526;-78
2023/01/03 05:43:29;;;;;;;;;120.50;107.25;;;;;14.05;56.78;100456.47;5127382;27;11593;-79
2023/01/03 05:45:58;;;;;;;;;113.50;103.50;;;;;13.96;57.11;100453.84;5092160;27;11513;-77
2023/01/03 05:48:27;;;;;;;;;111.75;102.50;;;;;14.01;56.84;100455.59;5124307;27;11518;-79
2023/01/03 05:50:57;;;;;;;;;121.50;108.50;;;;;13.94;56.98;100459.06;5130623;27;11523;-78
2023/01/03 05:53:26;;;;;;;;;113.25;105.75;;;;;14.04;56.71;100460.84;5114101;27;11488;-77
2023/01/03 05:55:54;;;;;;;;;122.25;109.75;;;;;14.09;56.65;100468.69;5130843;27;11478;-76
2023/01/03 05:58:23;;;;;;;;;119.00;106.25;;;;;14.13;56.66;100475.69;5113622;27;11515;-79
2023/01/03 06:00:53;;;;;;;;;105.00;94.75;;;;;14.16;56.45;100480.06;5078859;27;11644;-78
2023/01/03 06:03:22;;;;;;;;;114.25;104.00;;;;;14.15;56.49;100475.69;5114103;27;11593;-79
2023/01/03 06:05:51;;;;;;;;;113.50;106.75;;;;;14.18;56.28;100471.31;5062356;27;11526;-78
2023/01/03 06:08:20;;;;;;;;;112.00;101.75;;;;;14.20;56.03;100476.56;5113744;27;11489;-78
2023/01/03 06:10:48;;;;;;;;;114.50;104.00;;;;;14.23;55.81;100466.06;5130995;27;12246;-79
2023/01/03 06:13:17;;;;;;;;;127.50;112.00;;;;;14.20;55.31;100471.31;5132429;27;11526;-78
2023/01/03 06:17:53;;;;;;;;;112.50;100.00;;;;;14.08;56.19;100472.16;5096743;27;11489;-77
2023/01/03 06:18:36;;;;;;;;;105.50;100.75;;;;;14.13;55.98;100465.19;5113630;27;11495;-79
2023/01/03 06:21:05;;;;;;;;;111.00;100.50;;;;;14.07;56.54;100480.06;5113236;27;11967;-79
2023/01/03 06:23:34;;;;;;;;;100.00;92.75;;;;;13.94;56.97;100481.81;5113185;27;11293;-78
2023/01/03 06:26:03;;;;;;;;;95.75;89.50;;;;;13.94;56.97;100487.03;5113536;27;11157;-76
2023/01/03 06:28:33;;;;;;;;;96.50;90.25;;;;;13.91;57.14;100477.41;5096106;27;11762;-78
2023/01/03 06:31:03;;;;;;;;;95.50;89.75;;;;;13.99;57.00;100480.94;5051135;28;11126;-78
2023/01/03 06:33:32;;;;;;;;;96.75;87.00;;;;;14.03;57.08;100482.69;5067778;28;10729;-77
2023/01/03 06:36:04;;;;;;;;;97.25;89.00;;;;;14.10;57.03;100482.66;5070915;28;10630;-78
2023/01/03 06:38:34;;;;;;;;;92.75;82.50;;;;;14.08;57.12;100493.16;5055056;28;10754;-79
2023/01/03 06:41:03;;;;;;;;;90.50;80.00;;;;;14.08;57.12;100487.03;5054766;28;10450;-79
2023/01/03 06:43:32;;;;;;;;;90.50;79.00;;;;;14.07;57.27;100488.81;5087944;28;10368;-78
2023/01/03 06:54:25;;;;;;;;;88.50;74.75;;;;;14.20;57.14;100487.94;5030923;28;10109;-79
2023/01/03 06:56:54;;;;;;;;;90.00;74.50;;;;;14.24;56.92;100483.56;5031751;28;10162;-78
2023/01/03 06:59:24;;;;;;;;;87.00;76.00;;;;;14.30;56.95;100494.03;5015123;28;9799;-81
2023/01/03 07:01:53;;;;;;;;;86.75;71.25;;;;;14.29;56.87;100497.56;5031318;28;9987;-78
2023/01/03 07:04:24;;;;;;;;;88.50;70.50;;;;;14.35;56.61;100486.19;5031281;28;9659;-80
2023/01/03 07:06:54;;;;;;;;;81.75;62.75;;;;;14.39;56.57;100491.41;5030536;28;9838;-80
2023/01/03 07:09:24;;;;;;;;;84.75;68.25;;;;;14.49;56.20;100497.53;5061641;28;9780;-79
2023/01/03 07:13:57;;;;;;;;;83.75;67.50;;;;;14.56;56.15;100498.41;5070845;28;9645;-78
2023/01/03 07:14:46;;;;;;;;;81.25;67.00;;;;;14.69;55.87;100505.41;5070279;28;9875;-80
2023/01/03 07:17:15;;;;;;;;;87.50;73.75;;;;;14.74;55.67;100501.00;5086046;27;9761;-79
2023/01/03 07:19:45;;;;;;;;;82.25;65.25;;;;;14.74;55.40;100508.00;5115330;27;10436;-80
2023/01/03 07:22:15;;;;;;;;;85.75;69.25;;;;;14.85;55.39;100503.59;5115959;27;9617;-78
2023/01/03 07:24:44;;;;;;;;;87.00;69.00;;;;;14.93;55.04;100501.84;5133937;27;9944;-79
2023/01/03 07:27:13;;;;;;;;;76.25;60.50;;;;;14.95;55.01;100513.22;5115533;27;9863;-80
2023/01/03 07:29:42;;;;;;;;;85.25;67.25;;;;;15.01;55.05;100515.84;5077078;27;9630;-80
2023/01/03 07:32:10;;;;;;;;;81.75;67.00;;;;;15.13;54.33;100516.66;5111792;27;9723;-78
2023/01/03 07:34:39;;;;;;;;;83.50;65.00;;;;;15.25;54.08;100519.22;5129326;27;9439;-80
2023/01/03 07:37:08;;;;;;;;;78.75;62.00;;;;;15.34;54.21;100516.56;5146109;27;9637;-78
2023/01/03 07:39:38;;;;;;;;;85.50;69.00;;;;;15.43;54.06;100517.44;5128851;27;9609;-78
2023/01/03 07:44:54;;;;;;;;;76.67;61.00;;;;;15.62;53.42;100524.34;5129084;27;9628;-79
2023/01/03 07:47:23;;;;;;;;;74.33;60.67;;;;;15.71;52.76;100524.28;5129987;27;10383;-79
2023/01/03 07:49:52;;;;;;;;;79.75;64.50;;;;;15.81;52.68;100525.13;5111621;27;9282;-78
2023/01/03 07:52:20;;;;;;;;;71.67;56.00;;;;;15.98;52.25;100520.63;5128952;27;9447;-80
2023/01/03 07:54:51;;;;;;;;;75.00;58.33;;;;;16.00;51.99;100519.75;5111366;27;9239;-79
2023/01/03 07:57:19;;;;;;;;;77.67;60.00;;;;;16.11;51.78;100524.03;5108339;28;9177;-80
2023/01/03 07:59:48;;;;;;;;;77.00;58.67;;;;;15.94;52.37;100524.16;5109450;28;9189;-79
2023/01/03 08:02:19;;;;;;;;;74.33;59.00;;;;;16.11;51.90;100525.81;5091673;28;9185;-79
2023/01/03 08:04:48;;;;;;;;;75.33;58.00;;;;;16.19;51.65;100526.63;5110076;28;9111;-79
2023/01/03 08:07:17;;;;;;;;;72.50;57.50;;;;;16.31;51.30;100523.00;5108269;28;9063;-79
2023/01/03 08:15:19;;;;;;;;;71.50;57.75;;;;;16.63;50.84;100532.38;5090944;28;8931;-79
2023/01/03 08:17:48;;;;;;;;;69.50;56.25;;;;;16.52;51.07;100537.72;5073948;28;8856;-79
2023/01/03 08:20:17;;;;;;;;;69.75;55.25;;;;;16.53;51.01;100537.72;5108200;28;9696;-80
2023/01/03 08:22:45;;;;;;;;;71.75;56.50;;;;;16.68;50.60;100536.72;5090394;28;8841;-78
2023/01/03 08:25:14;;;;;;;;;67.25;53.00;;;;;16.81;50.40;100537.47;5109102;28;8853;-79
2023/01/03 08:27:44;;;;;;;;;60.50;49.25;;;;;16.87;50.70;100534.81;5057920;28;8928;-80
2023/01/03 08:30:18;;;;;;;;;62.25;48.75;;;;;16.69;50.99;100534.94;5070115;28;8828;-78
2023/01/03 08:32:47;;;;;;;;;57.00;47.00;;;;;16.92;50.47;100543.53;5054424;28;8982;-80
2023/01/03 08:35:17;;;;;;;;;56.50;47.25;;;;;16.99;50.38;100544.34;5087731;28;8864;-77
2023/01/03 08:37:47;;;;;;;;;57.00;46.75;;;;;17.11;49.71;100538.94;5087871;28;8844;-78
2023/01/03 08:40:18;;;;;;;;;53.25;45.00;;;;;16.78;50.32;100540.13;5088672;28;8867;-79
2023/01/03 08:42:48;;;;;;;;;49.75;42.00;;;;;16.70;50.43;100536.72;5090358;28;8853;-79
2023/01/03 08:45:18;;;;;;;;;45.25;39.50;;;;;17.09;49.87;100543.34;5107165;28;8845;-79
2023/01/03 08:47:47;;;;;;;;;39.25;33.00;;;;;16.82;49.95;100540.97;5090510;28;8857;-78
2023/01/03 08:50:16;;;;;;;;;39.25;35.50;;;;;16.84;49.73;100533.97;5107420;28;8853;-79
2023/01/03 08:52:45;;;;;;;;;36.25;32.50;;;;;16.76;50.36;100532.22;5108568;28;8856;-77
2023/01/03 08:55:14;;;;;;;;;39.25;33.00;;;;;16.79;49.99;100533.97;5090143;28;8853;-80
2023/01/03 08:57:43;;;;;;;;;31.75;30.50;;;;;16.95;49.72;100534.72;5107210;28;8841;-78
2023/01/03 09:00:14;;;;;;;;;41.75;35.00;;;;;16.94;49.64;100536.50;5106570;28;8848;-79
2023/01/03 09:02:43;;;;;;;;;38.00;34.50;;;;;16.85;49.40;100539.22;5003867;28;8835;-79
2023/01/03 09:05:12;;;;;;;;;39.50;34.00;;;;;16.89;49.61;100535.66;5070151;28;8903;-77
2023/01/03 09:07:41;;;;;;;;;37.50;35.50;;;;;16.57;50.60;100538.56;5086590;28;8847;-78
2023/01/03 09:10:11;;;;;;;;;42.00;36.50;;;;;16.77;50.25;100533.13;5087962;28;9663;-79
2023/01/03 09:12:39;;;;;;;;;37.25;34.00;;;;;16.66;50.23;100538.50;5103737;28;8859;-79
2023/01/03 09:15:09;;;;;;;;;40.25;37.50;;;;;17.02;49.33;100532.91;5088181;28;9070;-79
2023/01/03 09:17:42;;;;;;;;;36.75;34.50;;;;;16.70;50.63;100536.72;5105645;28;8868;-78
2023/01/03 09:20:13;;;;;;;;;40.25;36.00;;;;;16.82;50.17;100540.97;5106937;28;8864;-79
2023/01/03 09:22:41;;;;;;;;;39.50;34.75;;;;;16.70;49.70;100532.31;5106532;28;8845;-79
2023/01/03 09:25:10;;;;;;;;;30.50;27.50;;;;;16.67;50.03;100537.63;5089608;28;8845;-78
2023/01/03 09:27:39;;;;;;;;;33.00;31.50;;;;;16.46;50.53;100532.53;5123906;28;8865;-79
2023/01/03 09:30:09;;;;;;;;;33.50;31.25;;;;;16.59;50.57;100531.53;5146585;27;8847;-80
2023/01/03 09:32:39;;;;;;;;;30.75;27.75;;;;;16.40;50.93;100527.31;5130688;27;8965;-79
2023/01/03 09:35:09;;;;;;;;;32.50;32.00;;;;;16.40;50.76;100529.97;5098935;27;8834;-80
2023/01/03 09:37:38;;;;;;;;;32.50;29.75;;;;;16.24;51.41;100531.81;5063353;27;8842;-80
2023/01/03 09:40:15;;;;;;;;;39.75;35.00;;;;;16.30;51.36;100519.50;5114219;27;8859;-80
2023/01/03 09:45:34;;;;;;;;;28.40;27.60;;;;;16.72;50.00;100517.34;5117168;27;8855;-78
2023/01/03 09:48:05;;;;;;;;;37.00;33.25;;;;;15.60;53.81;100516.44;5091558;28;8839;-78
2023/01/03 09:50:38;;;;;;;;;41.00;36.00;;;;;15.98;52.39;100517.13;5068166;28;8836;-80
2023/01/03 10:05:28;;;;;;;;;32.00;30.25;;;;;16.56;51.00;100485.03;5012066;28;8826;-79
2023/01/03 10:08:21;;;;;;;;;21.00;20.00;;;;;16.01;52.40;100489.91;5012092;28;8849;-77
2023/01/03 10:11:02;;;;;;;;;32.00;28.80;;;;;16.35;51.69;100485.22;4996426;28;8884;-78
2023/01/03 10:13:45;;;;;;;;;28.80;25.80;;;;;16.40;51.81;100480.81;5011639;28;8892;-80
2023/01/03 10:16:24;;;;;;;;;39.75;34.00;;;;;16.20;52.32;100478.38;4994979;28;9653;-79
2023/01/03 10:19:16;;;;;;;;;32.00;28.75;;;;;15.76;53.44;100483.09;4995137;28;9491;-79
2023/01/03 10:21:55;;;;;;;;;38.25;33.50;;;;;15.78;53.10;100469.91;5024962;28;8853;-79
2023/01/03 10:24:26;;;;;;;;;35.25;32.00;;;;;15.38;54.73;100481.50;5093242;28;8869;-78
2023/01/03 10:27:03;;;;;;;;;29.00;28.75;;;;;15.45;54.80;100471.84;5079882;27;8871;-79
2023/01/03 10:29:32;;;;;;;;;39.75;36.75;;;;;15.30;55.32;100477.19;5107937;28;9606;-78
2023/01/03 10:32:18;;;;;;;;;34.75;31.75;;;;;15.43;54.88;100470.13;5107010;28;8841;-79
2023/01/03 10:35:02;;;;;;;;;40.75;36.00;;;;;15.58;54.42;100464.75;5105481;28;8876;-79
2023/01/03 10:37:32;;;;;;;;;34.50;32.00;;;;;15.87;54.17;100472.47;5085583;28;8873;-79
2023/01/03 10:40:03;;;;;;;;;46.50;35.75;;;;;16.15;53.21;100469.63;5111152;28;8840;-80
2023/01/03 10:42:34;;;;;;;;;16.75;16.00;;;;;16.30;52.27;100456.34;5059307;27;8841;-79
2023/01/03 10:45:05;;;;;;;;;37.50;34.50;;;;;16.23;52.56;100457.28;5147446;27;8875;-80
2023/01/03 10:47:34;;;;;;;;;36.75;34.25;;;;;15.89;53.92;100454.06;5113309;27;8882;-80
2023/01/03 10:50:06;;;;;;;;;39.50;35.00;;;;;16.07;53.21;100461.81;5112528;27;8853;-80
2023/01/03 10:52:39;;;;;;;;;40.00;36.00;;;;;15.68;54.91;100453.28;5130005;27;8827;-81
2023/01/03 10:55:14;;;;;;;;;37.75;34.75;;;;;15.87;54.14;100447.94;5147339;27;8838;-80
2023/01/03 10:57:47;;;;;;;;;34.75;33.50;;;;;16.35;52.58;100445.75;5107770;28;8870;-79
2023/01/03 11:00:36;;;;;;;;;37.75;35.50;;;;;15.88;54.14;100447.03;5073715;28;8838;-82
2023/01/03 11:03:14;;;;;;;;;37.50;33.00;;;;;15.43;55.48;100447.31;5066905;28;8856;-79
2023/01/03 11:05:46;;;;;;;;;45.00;38.75;;;;;15.31;56.18;100455.25;5050477;28;8967;-80
2023/01/03 11:08:19;;;;;;;;;41.75;36.00;;;;;15.41;55.91;100435.94;5050635;28;9711;-79
2023/01/03 11:10:52;;;;;;;;;37.50;34.25;;;;;15.45;55.58;100436.81;5049913;28;8976;-80
2023/01/03 11:13:29;;;;;;;;;34.25;33.25;;;;;15.75;54.92;100430.50;5049666;28;8928;-79
2023/01/03 11:16:00;;;;;;;;;41.00;36.00;;;;;16.17;53.80;100436.28;5066315;28;8858;-79
2023/01/03 11:18:31;;;;;;;;;41.33;37.33;;;;;15.89;54.50;100433.00;5067039;28;8879;-80
2023/01/03 11:21:13;;;;;;;;;40.50;36.75;;;;;16.40;53.17;100433.41;5033251;28;8974;-80
2023/01/03 11:23:59;;;;;;;;;41.00;36.50;;;;;16.50;53.01;100424.56;5050137;28;8895;-79
2023/01/03 11:26:41;;;;;;;;;38.75;35.75;;;;;16.94;52.31;100411.78;5050048;28;9592;-79
2023/01/03 11:29:28;;;;;;;;;40.00;35.25;;;;;16.89;51.61;100411.81;5043411;28;8842;-79
2023/01/03 11:32:10;;;;;;;;;33.75;30.25;;;;;16.59;52.68;100407.75;5070960;28;8864;-79
2023/01/03 11:35:02;;;;;;;;;36.20;32.60;;;;;15.74;54.83;100412.97;5053953;28;8845;-81
2023/01/03 11:38:00;;;;;;;;;32.75;28.75;;;;;15.89;54.81;100404.06;5053574;28;8833;-81
2023/01/03 11:40:39;;;;;;;;;29.00;26.40;;;;;16.31;53.49;100402.81;5087670;28;8974;-80
2023/01/03 11:43:30;;;;;;;;;26.20;25.60;;;;;16.57;52.42;100397.25;5071306;28;8839;-78
2023/01/03 11:46:13;;;;;;;;;26.40;25.40;;;;;15.68;55.35;100402.47;5089658;28;8966;-78
2023/01/03 11:49:09;;;;;;;;;28.00;26.40;;;;;16.06;54.73;100407.44;5037504;28;8871;-79
2023/01/03 11:51:47;;;;;;;;;22.80;21.80;;;;;15.92;53.93;100397.03;5071835;28;8851;-78
2023/01/03 11:54:46;;;;;;;;;20.40;19.00;;;;;15.52;55.15;100396.44;5090722;28;8871;-80
2023/01/03 11:57:33;;;;;;;;;20.00;19.40;;;;;15.10;56.60;100401.06;5088452;28;8894;-79
2023/01/03 12:00:17;;;;;;;;;22.80;19.80;;;;;14.98;56.91;100402.88;5072195;28;8836;-80
2023/01/03 12:03:07;;;;;;;;;17.40;16.60;;;;;15.15;56.35;100387.03;5088413;28;8839;-80
2023/01/03 12:05:42;;;;;;;;;17.80;17.20;;;;;15.34;56.14;100390.41;5088489;28;8831;-78
2023/01/03 12:08:42;;;;;;;;;17.20;15.80;;;;;15.16;56.44;100394.06;5088011;28;8886;-79
2023/01/03 12:11:25;;;;;;;;;24.00;21.80;;;;;15.23;56.47;100392.25;5088187;28;8890;-79
2023/01/03 12:14:05;;;;;;;;;26.80;23.00;;;;;15.78;55.07;100385.75;5088453;28;8875;-79
2023/01/03 12:16:39;;;;;;;;;21.40;19.20;;;;;16.14;53.64;100389.81;5082248;28;8929;-80
2023/01/03 12:19:26;;;;;;;;;25.00;21.00;;;;;16.65;52.76;100385.75;5110259;28;8871;-78
2023/01/03 12:22:00;;;;;;;;;21.20;19.60;;;;;16.32;52.88;100383.50;5107996;28;9574;-81
2023/01/03 12:24:35;;;;;;;;;27.20;23.60;;;;;16.66;52.15;100376.97;5108523;28;8860;-79
2023/01/03 12:27:10;;;;;;;;;10.40;8.40;;;;;16.40;52.62;100386.03;5107921;28;8922;-81
2023/01/03 12:29:52;;;;;;;;;19.80;19.80;;;;;16.13;53.07;100376.69;5124143;27;8885;-80
2023/01/03 12:32:28;;;;;;;;;21.00;19.00;;;;;16.37;52.25;100381.69;5129422;27;8894;-77